Time;durP1;ratioP1;P1;durP2;ratioP2;P2;SDS_P1;SDS_P2;PMS_P1;PMS_P2;Temp;Humidity;BMP_temperature;BMP_pressure;BME280_temperature;BME280_humidity;BME280_pressure;Samples;Min_cycle;Max_cycle;Signal;HPM_P1;HPM_P2
2022/02/05 00:01:23;;;;;;;24.65;12.78;;;;;;;7.20;100.00;99017.38;715285;1174;115142;-81
2022/02/05 00:47:07;;;;;;;21.58;11.18;;;;;;;7.02;100.00;98952.95;714182;1177;114922;-81
2022/02/05 01:02:09;;;;;;;19.85;12.05;;;;;;;6.92;100.00;98945.16;714590;1174;115659;-81
2022/02/05 01:17:13;;;;;;;17.93;10.85;;;;;;;7.03;100.00;98919.86;714341;1174;115588;-80
2022/02/05 01:32:21;;;;;;;15.95;10.00;;;;;;;7.13;100.00;98887.53;714254;1174;115305;-82
2022/02/05 02:33:19;;;;;;;14.53;8.70;;;;;;;7.43;100.00;98804.67;714482;1174;114601;-80
2022/02/05 02:48:21;;;;;;;12.78;7.90;;;;;;;7.28;100.00;98806.16;714309;1174;114608;-80
2022/02/05 03:03:24;;;;;;;12.20;7.23;;;;;;;6.99;100.00;98794.17;714852;1174;114268;-81
2022/02/05 03:18:44;;;;;;;12.83;7.23;;;;;;;6.85;100.00;98768.61;714589;1174;114027;-80
2022/02/05 03:33:46;;;;;;;11.37;7.40;;;;;;;6.90;100.00;98766.38;714314;1174;114556;-79
2022/02/05 03:48:48;;;;;;;22.28;11.88;;;;;;;7.05;100.00;98806.63;713959;1174;114821;-81
2022/02/05 04:03:50;;;;;;;1.73;1.40;;;;;;;5.97;100.00;98926.07;714420;1174;114814;-81
2022/02/05 04:18:56;;;;;;;3.18;1.73;;;;;;;5.47;100.00;99018.07;714175;1174;114538;-80
2022/02/05 04:33:58;;;;;;;1.80;1.08;;;;;;;5.08;100.00;99077.73;714455;1177;114897;-79
2022/02/05 05:19:29;;;;;;;19.68;8.80;;;;;;;4.49;100.00;99205.47;714282;1175;114742;-80
2022/02/05 05:34:31;;;;;;;18.40;6.27;;;;;;;4.36;100.00;99235.97;714277;1174;114921;-81
2022/02/05 05:49:46;;;;;;;41.93;17.20;;;;;;;4.28;100.00;99301.47;713987;1174;115052;-79
2022/02/05 06:04:48;;;;;;;40.28;16.08;;;;;;;4.40;100.00;99328.27;714439;1174;115675;-80
2022/02/05 06:19:52;;;;;;;10.43;4.33;;;;;;;4.33;100.00;99364.27;714156;1175;115058;-78
2022/02/05 06:34:54;;;;;;;30.10;15.13;;;;;;;4.49;100.00;99389.07;714320;1174;114930;-81
2022/02/05 06:49:57;;;;;;;25.43;14.05;;;;;;;4.64;100.00;99413.84;714173;1174;115047;-74
2022/02/05 07:05:00;;;;;;;10.23;5.15;;;;;;;4.77;100.00;99434.52;715083;1177;114323;-82
2022/02/05 07:20:18;;;;;;;10.23;3.73;;;;;;;4.97;100.00;99442.55;714806;1174;114925;-80
2022/02/05 07:35:21;;;;;;;26.10;10.38;;;;;;;5.10;100.00;99463.22;715630;1175;114893;-81
2022/02/05 07:50:23;;;;;;;21.40;9.07;;;;;;;5.20;100.00;99489.31;715855;1174;115031;-80
2022/02/05 08:05:26;;;;;;;14.67;3.97;;;;;;;5.36;100.00;99527.95;717185;1174;115523;-79
2022/02/05 08:20:28;;;;;;;25.77;7.87;;;;;;;5.38;100.00;99550.29;715878;1174;114177;-74
2022/02/05 08:35:30;;;;;;;29.65;12.75;;;;;;;5.29;100.00;99564.86;715846;1174;115477;-76
2022/02/05 08:50:33;;;;;;;19.95;10.65;;;;;;;5.61;100.00;99539.88;716774;1174;114414;-78
2022/02/05 09:05:46;;;;;;;108.03;40.48;;;;;;;6.13;100.00;99559.13;714477;1174;114616;-79
2022/02/05 09:20:48;;;;;;;20.33;10.40;;;;;;;6.37;100.00;99570.30;714474;1174;115302;-78
2022/02/05 09:35:50;;;;;;;14.95;7.35;;;;;;;6.29;98.92;99594.36;714378;1174;115477;-79
2022/02/05 09:51:04;;;;;;;13.60;5.63;;;;;;;5.98;98.51;99617.67;714273;1174;116232;-74
2022/02/05 10:06:20;;;;;;;13.60;6.40;;;;;;;6.07;97.80;99618.70;714526;1174;114460;-73
2022/02/05 10:21:30;;;;;;;59.07;23.13;;;;;;;6.14;96.14;99628.51;714391;1174;114273;-76
2022/02/05 15:32:34;;;;;;;63.93;28.28;;;;;;;6.44;72.76;99882.36;714444;1167;84934;-73
2022/02/05 15:47:38;;;;;;;57.18;20.03;;;;;;;6.39;72.93;99904.48;715049;1174;115013;-82
2022/02/05 16:02:41;;;;;;;74.15;23.25;;;;;;;6.22;74.31;99916.22;716774;1174;114318;-80
2022/02/05 16:17:50;;;;;;;45.13;16.77;;;;;;;6.15;75.67;99931.48;717070;1167;114439;-80
2022/02/05 16:32:59;;;;;;;74.60;39.53;;;;;;;6.12;76.02;99963.80;721013;1169;113535;-92
2022/02/05 16:48:01;;;;;;;90.53;30.97;;;;;;;6.04;78.28;99968.72;715136;1168;115320;-79
2022/02/05 17:03:05;;;;;;;51.60;18.23;;;;;;;5.97;79.01;99977.91;714118;1177;113631;-79
2022/02/05 17:33:12;;;;;;;10.80;5.10;;;;;;;5.90;79.75;100002.72;713492;1175;114548;-80
2022/02/05 17:48:15;;;;;;;15.83;6.20;;;;;;;5.97;79.08;100003.95;714049;1176;114707;-79
2022/02/05 18:03:18;;;;;;;20.68;7.63;;;;;;;6.02;78.61;99994.05;713559;1177;114341;-81
2022/02/05 18:18:21;;;;;;;25.63;6.80;;;;;;;6.01;77.50;100004.59;713401;1177;113973;-80
2022/02/05 18:33:24;;;;;;;20.30;5.43;;;;;;;5.97;78.08;99996.95;713728;1175;115517;-80
2022/02/05 18:48:26;;;;;;;11.37;4.77;;;;;;;5.96;77.91;99989.26;713507;1177;113673;-81
2022/02/05 19:18:34;;;;;;;49.30;13.58;;;;;;;6.08;77.88;100014.42;713561;1176;114769;-80
2022/02/05 19:33:38;;;;;;;30.77;12.63;;;;;;;6.03;77.77;100007.90;713292;1177;113985;-80
2022/02/05 19:48:41;;;;;;;22.75;6.78;;;;;;;6.04;77.93;100001.75;713659;1176;113859;-78
2022/02/05 20:03:44;;;;;;;42.85;10.55;;;;;;;5.86;77.87;99993.47;713548;1175;114555;-79
2022/02/05 20:18:49;;;;;;;15.73;5.77;;;;;;;5.80;78.47;99971.33;713389;1177;114659;-79
2022/02/05 20:33:53;;;;;;;20.75;6.25;;;;;;;5.75;79.60;99976.04;713643;1175;113904;-80
2022/02/05 20:48:56;;;;;;;15.63;5.77;;;;;;;5.78;80.11;99962.79;714954;1170;113651;-78
2022/02/05 21:04:01;;;;;;;29.77;9.17;;;;;;;5.65;80.96;99965.48;717291;1176;114984;-77
2022/02/05 21:19:04;;;;;;;16.85;5.00;;;;;;;5.64;81.45;99940.39;714933;1177;114561;-78
2022/02/05 21:49:29;;;;;;;17.15;4.05;;;;;;;5.52;81.50;99930.85;714517;1177;114381;-79
2022/02/05 22:04:32;;;;;;;18.53;4.73;;;;;;;5.48;82.04;99925.88;714245;1177;113524;-78
2022/02/05 22:19:35;;;;;;;13.08;4.00;;;;;;;5.49;82.75;99906.73;713475;1177;113575;-77
2022/02/05 22:34:39;;;;;;;5.57;3.40;;;;;;;5.43;83.43;99886.36;713328;1175;115258;-78
2022/02/05 22:49:41;;;;;;;20.90;6.10;;;;;;;5.38;82.65;99870.25;713396;1175;114857;-77
2022/02/05 23:04:44;;;;;;;9.43;4.17;;;;;;;5.32;82.98;99858.53;713707;1177;113579;-79
2022/02/05 23:50:28;;;;;;;26.35;6.15;;;;;;;5.14;82.39;99807.86;713208;1177;114211;-77
